الصفحة الرئيسية
METAR-TAF:

METAR-TAF

مطار :

مطار الخرطوم الدولي

الخرطوم, السودان

دائرة عرض: 15-36N, خط طول: 032-33E, ارتفاع: 382 متر

مراقبة الطقس الحالي

تاريخ ووقت الإصدار 20ساعات و 31 دقيقة قبل الساعة 12:00UTC
ريح 7 عقدة من الشمال الشرقي
درجة الحرارة 43°درجة مئوية
الرطوبة 9%
ضغط 1004 hPa
الرؤية 10 كم أو أكثر
غيوم قليلة على ارتفاع 5000 قدم

METAR: HSSS 211200Z 04007KT 9999 FEW050 43/04 Q1004 NOSIG

زمن: 11:31 (08:31 UTC)

توقعات

تاريخ ووقت الإصدار 3ساعات و 31 دقيقة قبل الساعة 05:00UTC
التوقعات صالحة من22 الساعة 06 UTC إلى 23 الساعة 12 UTC
ريح 12 عقدة من الجنوب تتزايد حتى 22 عقدة
الرؤية 10 كم أو أكثر
الغيوم لا تقل 1500 م ولا وجود لمزنة ركامية السحاب الأسود
مؤقت
من 22 الساعة 06 UTC إلى 22 الساعة 09 UTC
الرؤية: 6000 متر

TAF: HSSS 220500Z 2206/2312 18012G22KT CAVOK TEMPO 2206/2209 6000

أرصاد الطقس والتوقعات من أكثر من 4000 مطار (تقارير الطقس للمطار METAR والتنبؤ بالطقس بالمطارTAF).

المحطات المتاحة هي النقط الصفراء والحمراء على الخريطة.

حرك المؤشر فوق النقطة لمعرفة اسم المحطة.

ثم انقر لمعرفة أرصاد وتوقعات الطقس.

لتغيير الخارطة: اضغط على الأزرار الخضراء مع رمز الصليب الأسود للتكبير. على الزر الأخضر مع شرطة للتصغير، أو على الأسهم الخضراء للخرائط المجاورة.


METAR-TAF: